sensor_id;sensor_type;location;lat;lon;timestamp;P1;durP1;ratioP1;P2;durP2;ratioP2
55224;SDS011;41091;49.400;8.684;2022-10-14T00:01:37;10.20;;;5.78;;
55224;SDS011;41091;49.400;8.684;2022-10-14T00:04:03;7.90;;;6.13;;
55224;SDS011;41091;49.400;8.684;2022-10-14T00:06:31;14.48;;;7.05;;
55224;SDS011;41091;49.400;8.684;2022-10-14T00:08:58;8.80;;;5.82;;
55224;SDS011;41091;49.400;8.684;2022-10-14T00:11:27;15.02;;;5.72;;
55224;SDS011;41091;49.400;8.684;2022-10-14T00:13:59;17.80;;;6.13;;
55224;SDS011;41091;49.400;8.684;2022-10-14T00:16:27;14.20;;;6.40;;
55224;SDS011;41091;49.400;8.684;2022-10-14T00:18:55;10.43;;;6.68;;
55224;SDS011;41091;49.400;8.684;2022-10-14T00:21:21;12.05;;;5.68;;
55224;SDS011;41091;49.400;8.684;2022-10-14T00:23:46;9.07;;;6.22;;
55224;SDS011;41091;49.400;8.684;2022-10-14T00:26:18;11.85;;;5.95;;
55224;SDS011;41091;49.400;8.684;2022-10-14T00:28:45;8.52;;;5.88;;
55224;SDS011;41091;49.400;8.684;2022-10-14T00:31:13;10.07;;;5.97;;
55224;SDS011;41091;49.400;8.684;2022-10-14T00:33:41;14.27;;;6.18;;
55224;SDS011;41091;49.400;8.684;2022-10-14T00:36:07;9.02;;;5.88;;
55224;SDS011;41091;49.400;8.684;2022-10-14T00:38:34;6.28;;;5.65;;
55224;SDS011;41091;49.400;8.684;2022-10-14T00:41:00;13.82;;;6.45;;
55224;SDS011;41091;49.400;8.684;2022-10-14T00:43:26;10.98;;;6.35;;
55224;SDS011;41091;49.400;8.684;2022-10-14T00:45:52;8.23;;;6.18;;
55224;SDS011;41091;49.400;8.684;2022-10-14T00:48:18;10.73;;;6.60;;
55224;SDS011;41091;49.400;8.684;2022-10-14T00:50:46;20.45;;;6.07;;
55224;SDS011;41091;49.400;8.684;2022-10-14T00:53:13;9.30;;;5.68;;
55224;SDS011;41091;49.400;8.684;2022-10-14T00:55:39;12.88;;;6.22;;
55224;SDS011;41091;49.400;8.684;2022-10-14T00:58:09;9.88;;;5.68;;
55224;SDS011;41091;49.400;8.684;2022-10-14T01:00:34;16.75;;;6.63;;
55224;SDS011;41091;49.400;8.684;2022-10-14T01:03:00;11.60;;;6.10;;
55224;SDS011;41091;49.400;8.684;2022-10-14T01:05:32;18.58;;;5.90;;
55224;SDS011;41091;49.400;8.684;2022-10-14T01:08:09;11.27;;;6.60;;
55224;SDS011;41091;49.400;8.684;2022-10-14T01:10:53;12.63;;;6.85;;
55224;SDS011;41091;49.400;8.684;2022-10-14T01:21:43;7.07;;;5.70;;
55224;SDS011;41091;49.400;8.684;2022-10-14T01:30:27;11.98;;;6.32;;
55224;SDS011;41091;49.400;8.684;2022-10-14T01:38:24;8.25;;;5.40;;
55224;SDS011;41091;49.400;8.684;2022-10-14T01:40:55;11.23;;;5.72;;
55224;SDS011;41091;49.400;8.684;2022-10-14T01:45:50;12.52;;;5.32;;
55224;SDS011;41091;49.400;8.684;2022-10-14T01:48:17;11.95;;;5.05;;
55224;SDS011;41091;49.400;8.684;2022-10-14T01:50:46;11.23;;;5.55;;
55224;SDS011;41091;49.400;8.684;2022-10-14T01:53:16;10.88;;;6.80;;
55224;SDS011;41091;49.400;8.684;2022-10-14T01:55:45;9.23;;;6.63;;
55224;SDS011;41091;49.400;8.684;2022-10-14T01:58:14;11.75;;;7.90;;
55224;SDS011;41091;49.400;8.684;2022-10-14T02:00:43;11.30;;;6.00;;
55224;SDS011;41091;49.400;8.684;2022-10-14T02:03:11;15.27;;;6.88;;
55224;SDS011;41091;49.400;8.684;2022-10-14T02:05:42;12.10;;;6.05;;
55224;SDS011;41091;49.400;8.684;2022-10-14T02:11:11;16.63;;;6.38;;
55224;SDS011;41091;49.400;8.684;2022-10-14T02:18:55;11.50;;;6.93;;
55224;SDS011;41091;49.400;8.684;2022-10-14T02:24:06;18.30;;;8.32;;
55224;SDS011;41091;49.400;8.684;2022-10-14T02:26:35;18.40;;;8.88;;
55224;SDS011;41091;49.400;8.684;2022-10-14T02:29:01;14.40;;;8.18;;
55224;SDS011;41091;49.400;8.684;2022-10-14T02:31:28;11.57;;;8.52;;
55224;SDS011;41091;49.400;8.684;2022-10-14T02:33:55;13.13;;;8.73;;
55224;SDS011;41091;49.400;8.684;2022-10-14T02:36:24;20.85;;;9.93;;
55224;SDS011;41091;49.400;8.684;2022-10-14T02:38:53;15.57;;;9.93;;
55224;SDS011;41091;49.400;8.684;2022-10-14T02:41:20;19.90;;;9.43;;
55224;SDS011;41091;49.400;8.684;2022-10-14T02:43:47;16.00;;;9.82;;
55224;SDS011;41091;49.400;8.684;2022-10-14T02:46:12;21.90;;;10.55;;
55224;SDS011;41091;49.400;8.684;2022-10-14T02:48:38;19.02;;;10.30;;
55224;SDS011;41091;49.400;8.684;2022-10-14T02:51:05;16.77;;;10.40;;
55224;SDS011;41091;49.400;8.684;2022-10-14T02:53:31;18.60;;;11.00;;
55224;SDS011;41091;49.400;8.684;2022-10-14T02:56:01;21.10;;;10.48;;
55224;SDS011;41091;49.400;8.684;2022-10-14T02:58:26;18.23;;;9.95;;
55224;SDS011;41091;49.400;8.684;2022-10-14T03:00:51;18.27;;;11.05;;
55224;SDS011;41091;49.400;8.684;2022-10-14T03:03:17;20.60;;;11.05;;
55224;SDS011;41091;49.400;8.684;2022-10-14T03:05:45;16.35;;;9.73;;
55224;SDS011;41091;49.400;8.684;2022-10-14T03:08:13;18.15;;;10.32;;
55224;SDS011;41091;49.400;8.684;2022-10-14T03:10:38;14.73;;;9.20;;
55224;SDS011;41091;49.400;8.684;2022-10-14T03:13:04;15.35;;;8.63;;
55224;SDS011;41091;49.400;8.684;2022-10-14T03:15:29;13.50;;;9.07;;
55224;SDS011;41091;49.400;8.684;2022-10-14T03:17:57;23.50;;;9.45;;
55224;SDS011;41091;49.400;8.684;2022-10-14T03:20:22;17.55;;;10.88;;
55224;SDS011;41091;49.400;8.684;2022-10-14T03:22:50;22.92;;;10.23;;
55224;SDS011;41091;49.400;8.684;2022-10-14T03:25:18;16.58;;;11.50;;
55224;SDS011;41091;49.400;8.684;2022-10-14T03:27:43;15.82;;;9.57;;
55224;SDS011;41091;49.400;8.684;2022-10-14T03:30:10;25.70;;;10.40;;
55224;SDS011;41091;49.400;8.684;2022-10-14T03:32:36;17.08;;;9.80;;
55224;SDS011;41091;49.400;8.684;2022-10-14T03:35:04;15.80;;;10.55;;
55224;SDS011;41091;49.400;8.684;2022-10-14T03:37:29;21.17;;;10.63;;
55224;SDS011;41091;49.400;8.684;2022-10-14T03:40:00;14.77;;;9.68;;
55224;SDS011;41091;49.400;8.684;2022-10-14T03:42:25;13.38;;;9.63;;
55224;SDS011;41091;49.400;8.684;2022-10-14T03:44:50;14.23;;;9.52;;
55224;SDS011;41091;49.400;8.684;2022-10-14T03:47:16;21.90;;;10.25;;
55224;SDS011;41091;49.400;8.684;2022-10-14T03:49:42;10.90;;;7.88;;
55224;SDS011;41091;49.400;8.684;2022-10-14T03:52:09;12.25;;;7.70;;
55224;SDS011;41091;49.400;8.684;2022-10-14T03:54:35;10.05;;;7.63;;
55224;SDS011;41091;49.400;8.684;2022-10-14T03:57:00;14.73;;;6.70;;
55224;SDS011;41091;49.400;8.684;2022-10-14T03:59:26;17.30;;;7.93;;
55224;SDS011;41091;49.400;8.684;2022-10-14T04:01:51;12.02;;;7.75;;
55224;SDS011;41091;49.400;8.684;2022-10-14T04:04:16;13.52;;;8.55;;
55224;SDS011;41091;49.400;8.684;2022-10-14T04:06:42;12.73;;;7.72;;
55224;SDS011;41091;49.400;8.684;2022-10-14T04:09:07;12.60;;;7.78;;
55224;SDS011;41091;49.400;8.684;2022-10-14T04:11:32;13.70;;;7.63;;
55224;SDS011;41091;49.400;8.684;2022-10-14T04:14:00;9.70;;;7.15;;
55224;SDS011;41091;49.400;8.684;2022-10-14T04:16:25;12.30;;;6.80;;
55224;SDS011;41091;49.400;8.684;2022-10-14T04:18:53;9.98;;;6.50;;
55224;SDS011;41091;49.400;8.684;2022-10-14T04:21:19;8.07;;;6.30;;
55224;SDS011;41091;49.400;8.684;2022-10-14T04:23:44;8.43;;;6.93;;
55224;SDS011;41091;49.400;8.684;2022-10-14T04:26:09;8.18;;;5.75;;
55224;SDS011;41091;49.400;8.684;2022-10-14T04:28:35;13.80;;;6.95;;
55224;SDS011;41091;49.400;8.684;2022-10-14T04:31:03;10.43;;;6.68;;
55224;SDS011;41091;49.400;8.684;2022-10-14T04:33:28;13.13;;;7.00;;
55224;SDS011;41091;49.400;8.684;2022-10-14T04:35:57;10.82;;;7.10;;
55224;SDS011;41091;49.400;8.684;2022-10-14T04:38:24;15.38;;;7.35;;
55224;SDS011;41091;49.400;8.684;2022-10-14T04:40:49;10.85;;;7.18;;
55224;SDS011;41091;49.400;8.684;2022-10-14T04:43:17;15.43;;;8.45;;
55224;SDS011;41091;49.400;8.684;2022-10-14T04:45:45;14.10;;;7.30;;
55224;SDS011;41091;49.400;8.684;2022-10-14T04:48:13;13.57;;;7.93;;
55224;SDS011;41091;49.400;8.684;2022-10-14T04:50:42;15.85;;;9.68;;
55224;SDS011;41091;49.400;8.684;2022-10-14T04:53:09;14.93;;;7.90;;
55224;SDS011;41091;49.400;8.684;2022-10-14T04:55:35;14.98;;;8.43;;
55224;SDS011;41091;49.400;8.684;2022-10-14T04:58:01;14.18;;;8.52;;
55224;SDS011;41091;49.400;8.684;2022-10-14T05:00:26;25.00;;;9.05;;
55224;SDS011;41091;49.400;8.684;2022-10-14T05:02:52;14.93;;;7.97;;
55224;SDS011;41091;49.400;8.684;2022-10-14T05:05:17;12.70;;;8.65;;
55224;SDS011;41091;49.400;8.684;2022-10-14T05:07:42;16.13;;;8.63;;
55224;SDS011;41091;49.400;8.684;2022-10-14T05:10:08;9.98;;;7.03;;
55224;SDS011;41091;49.400;8.684;2022-10-14T05:12:36;14.73;;;8.40;;
55224;SDS011;41091;49.400;8.684;2022-10-14T05:15:02;16.40;;;7.25;;
55224;SDS011;41091;49.400;8.684;2022-10-14T05:17:31;9.18;;;6.70;;
55224;SDS011;41091;49.400;8.684;2022-10-14T05:19:56;11.05;;;7.15;;
55224;SDS011;41091;49.400;8.684;2022-10-14T05:22:24;7.97;;;6.65;;
55224;SDS011;41091;49.400;8.684;2022-10-14T05:24:50;10.68;;;6.88;;
55224;SDS011;41091;49.400;8.684;2022-10-14T05:27:15;8.77;;;6.03;;
55224;SDS011;41091;49.400;8.684;2022-10-14T05:29:43;10.88;;;5.93;;
55224;SDS011;41091;49.400;8.684;2022-10-14T05:32:08;10.68;;;6.15;;
55224;SDS011;41091;49.400;8.684;2022-10-14T05:34:33;6.88;;;5.55;;
55224;SDS011;41091;49.400;8.684;2022-10-14T05:36:59;9.65;;;6.28;;
55224;SDS011;41091;49.400;8.684;2022-10-14T05:39:25;8.55;;;6.10;;
55224;SDS011;41091;49.400;8.684;2022-10-14T05:41:53;8.88;;;6.78;;
55224;SDS011;41091;49.400;8.684;2022-10-14T05:44:18;12.10;;;5.00;;
55224;SDS011;41091;49.400;8.684;2022-10-14T05:46:44;7.13;;;4.47;;
55224;SDS011;41091;49.400;8.684;2022-10-14T05:49:09;9.15;;;5.90;;
55224;SDS011;41091;49.400;8.684;2022-10-14T05:51:35;6.72;;;5.97;;
55224;SDS011;41091;49.400;8.684;2022-10-14T05:54:00;10.68;;;6.88;;
55224;SDS011;41091;49.400;8.684;2022-10-14T05:56:26;7.10;;;5.78;;
55224;SDS011;41091;49.400;8.684;2022-10-14T05:58:51;5.45;;;5.03;;
55224;SDS011;41091;49.400;8.684;2022-10-14T06:01:16;13.15;;;5.53;;
55224;SDS011;41091;49.400;8.684;2022-10-14T06:03:42;10.60;;;6.55;;
55224;SDS011;41091;49.400;8.684;2022-10-14T06:06:11;7.43;;;5.28;;
55224;SDS011;41091;49.400;8.684;2022-10-14T06:08:40;10.27;;;5.50;;
55224;SDS011;41091;49.400;8.684;2022-10-14T06:11:06;12.18;;;5.00;;
55224;SDS011;41091;49.400;8.684;2022-10-14T06:13:32;7.25;;;4.80;;
55224;SDS011;41091;49.400;8.684;2022-10-14T06:16:01;8.00;;;4.78;;
55224;SDS011;41091;49.400;8.684;2022-10-14T06:18:30;16.73;;;5.30;;
55224;SDS011;41091;49.400;8.684;2022-10-14T06:21:00;7.72;;;4.63;;
55224;SDS011;41091;49.400;8.684;2022-10-14T06:23:25;12.68;;;5.45;;
55224;SDS011;41091;49.400;8.684;2022-10-14T06:25:53;7.00;;;5.40;;
55224;SDS011;41091;49.400;8.684;2022-10-14T06:28:19;7.30;;;4.22;;
55224;SDS011;41091;49.400;8.684;2022-10-14T06:30:53;8.00;;;4.97;;
55224;SDS011;41091;49.400;8.684;2022-10-14T06:33:19;6.78;;;5.25;;
55224;SDS011;41091;49.400;8.684;2022-10-14T06:35:45;8.00;;;5.63;;
55224;SDS011;41091;49.400;8.684;2022-10-14T06:38:11;5.95;;;3.90;;
55224;SDS011;41091;49.400;8.684;2022-10-14T06:40:36;9.48;;;4.93;;
55224;SDS011;41091;49.400;8.684;2022-10-14T06:43:02;12.77;;;5.72;;
55224;SDS011;41091;49.400;8.684;2022-10-14T06:45:27;8.57;;;4.57;;
55224;SDS011;41091;49.400;8.684;2022-10-14T06:47:52;10.60;;;5.28;;
55224;SDS011;41091;49.400;8.684;2022-10-14T06:50:18;6.22;;;5.13;;
55224;SDS011;41091;49.400;8.684;2022-10-14T06:52:48;9.77;;;5.32;;
55224;SDS011;41091;49.400;8.684;2022-10-14T06:55:13;14.23;;;6.22;;
55224;SDS011;41091;49.400;8.684;2022-10-14T06:57:42;6.50;;;5.13;;
55224;SDS011;41091;49.400;8.684;2022-10-14T07:00:10;9.35;;;5.63;;
55224;SDS011;41091;49.400;8.684;2022-10-14T07:02:38;9.55;;;5.70;;
55224;SDS011;41091;49.400;8.684;2022-10-14T07:05:03;9.98;;;5.72;;
55224;SDS011;41091;49.400;8.684;2022-10-14T07:07:31;6.57;;;4.93;;
55224;SDS011;41091;49.400;8.684;2022-10-14T07:09:57;7.95;;;5.55;;
55224;SDS011;41091;49.400;8.684;2022-10-14T07:12:23;6.57;;;5.30;;
55224;SDS011;41091;49.400;8.684;2022-10-14T07:14:49;19.50;;;6.40;;
55224;SDS011;41091;49.400;8.684;2022-10-14T07:17:14;15.02;;;6.43;;
55224;SDS011;41091;49.400;8.684;2022-10-14T07:19:39;8.43;;;6.15;;
55224;SDS011;41091;49.400;8.684;2022-10-14T07:22:07;13.48;;;6.72;;
55224;SDS011;41091;49.400;8.684;2022-10-14T07:24:33;14.85;;;6.78;;
55224;SDS011;41091;49.400;8.684;2022-10-14T07:26:58;13.55;;;6.20;;
55224;SDS011;41091;49.400;8.684;2022-10-14T07:29:24;14.20;;;6.40;;
55224;SDS011;41091;49.400;8.684;2022-10-14T07:31:49;13.88;;;6.82;;
55224;SDS011;41091;49.400;8.684;2022-10-14T07:34:17;8.73;;;6.15;;
55224;SDS011;41091;49.400;8.684;2022-10-14T07:36:42;8.55;;;5.50;;
55224;SDS011;41091;49.400;8.684;2022-10-14T07:39:07;11.32;;;5.90;;
55224;SDS011;41091;49.400;8.684;2022-10-14T07:41:35;7.05;;;5.07;;
55224;SDS011;41091;49.400;8.684;2022-10-14T07:44:02;9.30;;;5.90;;
55224;SDS011;41091;49.400;8.684;2022-10-14T07:46:32;11.52;;;5.30;;
55224;SDS011;41091;49.400;8.684;2022-10-14T07:51:37;11.55;;;5.57;;
55224;SDS011;41091;49.400;8.684;2022-10-14T07:54:03;6.30;;;4.57;;
55224;SDS011;41091;49.400;8.684;2022-10-14T07:56:30;6.75;;;4.53;;
55224;SDS011;41091;49.400;8.684;2022-10-14T07:58:57;6.70;;;5.20;;
55224;SDS011;41091;49.400;8.684;2022-10-14T08:01:25;10.23;;;5.47;;
55224;SDS011;41091;49.400;8.684;2022-10-14T08:03:50;12.13;;;4.88;;
55224;SDS011;41091;49.400;8.684;2022-10-14T08:06:16;5.72;;;4.95;;
55224;SDS011;41091;49.400;8.684;2022-10-14T08:08:41;7.82;;;4.97;;
55224;SDS011;41091;49.400;8.684;2022-10-14T08:11:11;6.05;;;5.45;;
55224;SDS011;41091;49.400;8.684;2022-10-14T08:13:39;12.38;;;5.25;;
55224;SDS011;41091;49.400;8.684;2022-10-14T08:16:12;5.70;;;4.15;;
55224;SDS011;41091;49.400;8.684;2022-10-14T08:18:47;9.05;;;4.63;;
55224;SDS011;41091;49.400;8.684;2022-10-14T08:21:12;5.72;;;4.28;;
55224;SDS011;41091;49.400;8.684;2022-10-14T08:23:38;9.00;;;4.68;;
55224;SDS011;41091;49.400;8.684;2022-10-14T08:29:03;7.05;;;4.32;;
55224;SDS011;41091;49.400;8.684;2022-10-14T08:31:30;8.73;;;3.45;;
55224;SDS011;41091;49.400;8.684;2022-10-14T08:33:56;6.45;;;3.60;;
55224;SDS011;41091;49.400;8.684;2022-10-14T08:36:22;4.55;;;4.05;;
55224;SDS011;41091;49.400;8.684;2022-10-14T08:38:51;10.18;;;3.63;;
55224;SDS011;41091;49.400;8.684;2022-10-14T08:41:30;11.40;;;2.75;;
55224;SDS011;41091;49.400;8.684;2022-10-14T08:49:27;7.15;;;2.90;;
55224;SDS011;41091;49.400;8.684;2022-10-14T08:52:00;6.45;;;3.08;;
55224;SDS011;41091;49.400;8.684;2022-10-14T08:57:01;2.45;;;2.25;;
55224;SDS011;41091;49.400;8.684;2022-10-14T08:59:27;8.43;;;2.53;;
55224;SDS011;41091;49.400;8.684;2022-10-14T09:01:58;4.20;;;2.60;;
55224;SDS011;41091;49.400;8.684;2022-10-14T09:04:25;3.42;;;3.13;;
55224;SDS011;41091;49.400;8.684;2022-10-14T09:06:51;4.75;;;2.72;;
55224;SDS011;41091;49.400;8.684;2022-10-14T09:09:19;7.82;;;2.47;;
55224;SDS011;41091;49.400;8.684;2022-10-14T09:11:55;9.48;;;3.60;;
55224;SDS011;41091;49.400;8.684;2022-10-14T09:14:24;4.20;;;2.63;;
55224;SDS011;41091;49.400;8.684;2022-10-14T09:16:52;3.38;;;2.47;;
55224;SDS011;41091;49.400;8.684;2022-10-14T09:19:33;4.35;;;2.97;;
55224;SDS011;41091;49.400;8.684;2022-10-14T09:22:07;6.93;;;3.00;;
55224;SDS011;41091;49.400;8.684;2022-10-14T09:24:35;3.28;;;2.58;;
55224;SDS011;41091;49.400;8.684;2022-10-14T09:27:12;2.72;;;2.47;;
55224;SDS011;41091;49.400;8.684;2022-10-14T09:34:59;3.30;;;2.85;;
55224;SDS011;41091;49.400;8.684;2022-10-14T09:37:28;2.80;;;2.60;;
55224;SDS011;41091;49.400;8.684;2022-10-14T09:40:05;3.20;;;2.60;;
55224;SDS011;41091;49.400;8.684;2022-10-14T09:42:55;5.50;;;2.70;;
55224;SDS011;41091;49.400;8.684;2022-10-14T09:45:45;5.05;;;3.85;;
55224;SDS011;41091;49.400;8.684;2022-10-14T09:48:41;5.60;;;2.50;;
55224;SDS011;41091;49.400;8.684;2022-10-14T09:51:08;5.45;;;2.55;;
55224;SDS011;41091;49.400;8.684;2022-10-14T09:53:38;2.17;;;1.85;;
55224;SDS011;41091;49.400;8.684;2022-10-14T09:56:07;5.22;;;2.15;;
55224;SDS011;41091;49.400;8.684;2022-10-14T10:01:00;4.65;;;2.53;;
55224;SDS011;41091;49.400;8.684;2022-10-14T10:03:30;7.47;;;2.63;;
55224;SDS011;41091;49.400;8.684;2022-10-14T10:05:58;5.60;;;2.10;;
55224;SDS011;41091;49.400;8.684;2022-10-14T10:08:26;2.80;;;2.58;;
55224;SDS011;41091;49.400;8.684;2022-10-14T10:10:57;3.60;;;2.10;;
55224;SDS011;41091;49.400;8.684;2022-10-14T10:13:32;6.93;;;1.83;;
55224;SDS011;41091;49.400;8.684;2022-10-14T10:15:58;6.72;;;2.10;;
55224;SDS011;41091;49.400;8.684;2022-10-14T10:18:24;2.97;;;1.90;;
55224;SDS011;41091;49.400;8.684;2022-10-14T10:21:03;7.43;;;2.40;;
55224;SDS011;41091;49.400;8.684;2022-10-14T10:23:33;4.55;;;2.97;;
55224;SDS011;41091;49.400;8.684;2022-10-14T10:26:13;2.80;;;2.17;;
55224;SDS011;41091;49.400;8.684;2022-10-14T10:28:46;2.88;;;2.60;;
55224;SDS011;41091;49.400;8.684;2022-10-14T10:37:01;3.00;;;2.05;;
55224;SDS011;41091;49.400;8.684;2022-10-14T10:44:48;4.53;;;3.45;;
55224;SDS011;41091;49.400;8.684;2022-10-14T10:53:02;4.57;;;2.93;;
55224;SDS011;41091;49.400;8.684;2022-10-14T10:55:27;3.30;;;2.30;;
55224;SDS011;41091;49.400;8.684;2022-10-14T11:00:33;6.70;;;2.30;;
55224;SDS011;41091;49.400;8.684;2022-10-14T11:03:19;7.00;;;2.13;;
55224;SDS011;41091;49.400;8.684;2022-10-14T11:11:24;4.70;;;1.85;;
55224;SDS011;41091;49.400;8.684;2022-10-14T11:28:09;7.18;;;3.53;;
55224;SDS011;41091;49.400;8.684;2022-10-14T11:30:40;2.13;;;2.03;;
55224;SDS011;41091;49.400;8.684;2022-10-14T11:33:32;9.85;;;2.80;;
55224;SDS011;41091;49.400;8.684;2022-10-14T11:39:21;2.67;;;2.13;;
55224;SDS011;41091;49.400;8.684;2022-10-14T11:46:42;3.65;;;3.20;;
55224;SDS011;41091;49.400;8.684;2022-10-14T11:54:31;3.60;;;3.30;;
55224;SDS011;41091;49.400;8.684;2022-10-14T11:57:03;8.10;;;2.55;;
55224;SDS011;41091;49.400;8.684;2022-10-14T12:02:33;6.07;;;3.22;;
55224;SDS011;41091;49.400;8.684;2022-10-14T12:05:12;5.50;;;2.60;;
55224;SDS011;41091;49.400;8.684;2022-10-14T12:07:46;7.47;;;3.00;;
55224;SDS011;41091;49.400;8.684;2022-10-14T12:10:19;10.98;;;3.10;;
55224;SDS011;41091;49.400;8.684;2022-10-14T12:12:50;13.13;;;3.38;;
55224;SDS011;41091;49.400;8.684;2022-10-14T12:15:22;4.45;;;2.80;;
55224;SDS011;41091;49.400;8.684;2022-10-14T12:17:52;5.35;;;3.40;;
55224;SDS011;41091;49.400;8.684;2022-10-14T12:20:33;3.20;;;2.75;;
55224;SDS011;41091;49.400;8.684;2022-10-14T12:23:05;8.57;;;3.03;;
55224;SDS011;41091;49.400;8.684;2022-10-14T12:25:50;8.18;;;2.60;;
55224;SDS011;41091;49.400;8.684;2022-10-14T12:28:20;4.95;;;2.88;;
55224;SDS011;41091;49.400;8.684;2022-10-14T12:30:46;3.65;;;2.50;;
55224;SDS011;41091;49.400;8.684;2022-10-14T12:33:12;5.85;;;2.40;;
55224;SDS011;41091;49.400;8.684;2022-10-14T12:38:26;6.05;;;2.70;;
55224;SDS011;41091;49.400;8.684;2022-10-14T12:40:57;5.20;;;2.70;;
55224;SDS011;41091;49.400;8.684;2022-10-14T12:43:59;3.08;;;2.03;;
55224;SDS011;41091;49.400;8.684;2022-10-14T12:46:26;3.45;;;1.58;;
55224;SDS011;41091;49.400;8.684;2022-10-14T12:48:51;2.00;;;1.80;;
55224;SDS011;41091;49.400;8.684;2022-10-14T12:51:20;4.07;;;2.28;;
55224;SDS011;41091;49.400;8.684;2022-10-14T12:54:11;3.67;;;1.63;;
55224;SDS011;41091;49.400;8.684;2022-10-14T12:56:41;4.68;;;1.75;;
55224;SDS011;41091;49.400;8.684;2022-10-14T12:59:15;4.00;;;1.70;;
55224;SDS011;41091;49.400;8.684;2022-10-14T13:01:53;3.05;;;1.45;;
55224;SDS011;41091;49.400;8.684;2022-10-14T13:04:19;1.63;;;1.52;;
55224;SDS011;41091;49.400;8.684;2022-10-14T13:06:54;6.82;;;2.10;;
55224;SDS011;41091;49.400;8.684;2022-10-14T13:09:36;6.90;;;1.90;;
55224;SDS011;41091;49.400;8.684;2022-10-14T13:15:28;4.57;;;2.45;;
55224;SDS011;41091;49.400;8.684;2022-10-14T13:23:14;2.60;;;2.08;;
55224;SDS011;41091;49.400;8.684;2022-10-14T13:34:10;2.13;;;2.03;;
55224;SDS011;41091;49.400;8.684;2022-10-14T13:36:42;8.45;;;2.38;;
55224;SDS011;41091;49.400;8.684;2022-10-14T13:39:20;7.30;;;2.78;;
55224;SDS011;41091;49.400;8.684;2022-10-14T13:41:45;5.55;;;2.63;;
55224;SDS011;41091;49.400;8.684;2022-10-14T13:44:10;2.72;;;2.25;;
55224;SDS011;41091;49.400;8.684;2022-10-14T13:46:38;9.10;;;2.80;;
55224;SDS011;41091;49.400;8.684;2022-10-14T13:49:07;2.42;;;2.22;;
55224;SDS011;41091;49.400;8.684;2022-10-14T13:54:26;3.15;;;2.72;;
55224;SDS011;41091;49.400;8.684;2022-10-14T13:59:26;2.88;;;2.67;;
55224;SDS011;41091;49.400;8.684;2022-10-14T14:01:52;2.97;;;2.63;;
55224;SDS011;41091;49.400;8.684;2022-10-14T14:04:24;6.35;;;3.65;;
55224;SDS011;41091;49.400;8.684;2022-10-14T14:06:54;9.23;;;3.15;;
55224;SDS011;41091;49.400;8.684;2022-10-14T14:09:23;6.72;;;6.13;;
55224;SDS011;41091;49.400;8.684;2022-10-14T14:11:52;15.60;;;7.13;;
55224;SDS011;41091;49.400;8.684;2022-10-14T14:14:21;7.95;;;4.97;;
55224;SDS011;41091;49.400;8.684;2022-10-14T14:19:24;3.03;;;2.83;;
55224;SDS011;41091;49.400;8.684;2022-10-14T14:21:50;9.48;;;8.48;;
55224;SDS011;41091;49.400;8.684;2022-10-14T14:24:23;6.68;;;3.97;;
55224;SDS011;41091;49.400;8.684;2022-10-14T14:26:51;9.20;;;5.25;;
55224;SDS011;41091;49.400;8.684;2022-10-14T14:29:18;10.65;;;4.47;;
55224;SDS011;41091;49.400;8.684;2022-10-14T14:31:45;14.10;;;6.30;;
55224;SDS011;41091;49.400;8.684;2022-10-14T14:34:14;5.60;;;4.13;;
55224;SDS011;41091;49.400;8.684;2022-10-14T14:36:43;5.38;;;3.42;;
55224;SDS011;41091;49.400;8.684;2022-10-14T14:39:23;10.73;;;7.72;;
55224;SDS011;41091;49.400;8.684;2022-10-14T14:41:51;28.55;;;16.45;;
55224;SDS011;41091;49.400;8.684;2022-10-14T14:44:18;6.72;;;4.40;;
55224;SDS011;41091;49.400;8.684;2022-10-14T14:46:47;17.92;;;4.85;;
55224;SDS011;41091;49.400;8.684;2022-10-14T14:49:18;11.75;;;4.93;;
55224;SDS011;41091;49.400;8.684;2022-10-14T14:51:47;12.13;;;4.78;;
55224;SDS011;41091;49.400;8.684;2022-10-14T14:54:17;7.40;;;5.32;;
55224;SDS011;41091;49.400;8.684;2022-10-14T14:56:44;5.45;;;3.83;;
55224;SDS011;41091;49.400;8.684;2022-10-14T15:01:53;6.68;;;3.90;;
55224;SDS011;41091;49.400;8.684;2022-10-14T15:04:21;8.85;;;4.18;;
55224;SDS011;41091;49.400;8.684;2022-10-14T15:06:48;5.80;;;2.83;;
55224;SDS011;41091;49.400;8.684;2022-10-14T15:09:36;6.10;;;3.50;;
55224;SDS011;41091;49.400;8.684;2022-10-14T15:12:11;3.45;;;3.15;;
55224;SDS011;41091;49.400;8.684;2022-10-14T15:19:51;4.15;;;3.45;;
55224;SDS011;41091;49.400;8.684;2022-10-14T15:30:15;5.60;;;3.38;;
55224;SDS011;41091;49.400;8.684;2022-10-14T15:32:50;5.20;;;3.72;;
55224;SDS011;41091;49.400;8.684;2022-10-14T15:35:16;3.35;;;3.13;;
55224;SDS011;41091;49.400;8.684;2022-10-14T15:37:45;4.63;;;2.65;;
55224;SDS011;41091;49.400;8.684;2022-10-14T15:40:14;9.70;;;2.70;;
55224;SDS011;41091;49.400;8.684;2022-10-14T15:42:41;13.90;;;3.33;;
55224;SDS011;41091;49.400;8.684;2022-10-14T15:45:10;4.20;;;2.67;;
55224;SDS011;41091;49.400;8.684;2022-10-14T15:47:38;14.05;;;3.25;;
55224;SDS011;41091;49.400;8.684;2022-10-14T15:50:10;2.60;;;2.38;;
55224;SDS011;41091;49.400;8.684;2022-10-14T15:52:41;4.72;;;2.63;;
55224;SDS011;41091;49.400;8.684;2022-10-14T15:57:43;5.07;;;2.88;;
55224;SDS011;41091;49.400;8.684;2022-10-14T16:00:09;1.88;;;1.77;;
55224;SDS011;41091;49.400;8.684;2022-10-14T16:02:37;2.67;;;2.33;;
55224;SDS011;41091;49.400;8.684;2022-10-14T16:07:30;2.80;;;2.60;;
55224;SDS011;41091;49.400;8.684;2022-10-14T16:09:58;6.82;;;2.67;;
55224;SDS011;41091;49.400;8.684;2022-10-14T16:12:23;6.05;;;2.88;;
55224;SDS011;41091;49.400;8.684;2022-10-14T16:14:48;9.07;;;4.47;;
55224;SDS011;41091;49.400;8.684;2022-10-14T16:17:14;10.63;;;4.45;;
55224;SDS011;41091;49.400;8.684;2022-10-14T16:19:39;6.93;;;4.82;;
55224;SDS011;41091;49.400;8.684;2022-10-14T16:22:08;4.22;;;3.80;;
55224;SDS011;41091;49.400;8.684;2022-10-14T16:24:33;6.38;;;5.78;;
55224;SDS011;41091;49.400;8.684;2022-10-14T16:26:58;4.35;;;3.90;;
55224;SDS011;41091;49.400;8.684;2022-10-14T16:29:24;8.68;;;3.15;;
55224;SDS011;41091;49.400;8.684;2022-10-14T16:31:52;3.25;;;2.95;;
55224;SDS011;41091;49.400;8.684;2022-10-14T16:34:19;7.25;;;3.30;;
55224;SDS011;41091;49.400;8.684;2022-10-14T16:36:45;8.98;;;2.88;;
55224;SDS011;41091;49.400;8.684;2022-10-14T16:39:14;2.90;;;2.70;;
55224;SDS011;41091;49.400;8.684;2022-10-14T16:41:39;3.63;;;2.88;;
55224;SDS011;41091;49.400;8.684;2022-10-14T16:44:05;5.75;;;3.17;;
55224;SDS011;41091;49.400;8.684;2022-10-14T16:46:48;3.35;;;2.88;;
55224;SDS011;41091;49.400;8.684;2022-10-14T16:49:38;3.30;;;2.70;;
55224;SDS011;41091;49.400;8.684;2022-10-14T16:52:07;5.40;;;3.70;;
55224;SDS011;41091;49.400;8.684;2022-10-14T16:54:32;7.43;;;3.55;;
55224;SDS011;41091;49.400;8.684;2022-10-14T16:56:57;7.68;;;3.28;;
55224;SDS011;41091;49.400;8.684;2022-10-14T16:59:25;5.10;;;2.92;;
55224;SDS011;41091;49.400;8.684;2022-10-14T17:01:57;5.75;;;3.13;;
55224;SDS011;41091;49.400;8.684;2022-10-14T17:04:25;3.05;;;2.70;;
55224;SDS011;41091;49.400;8.684;2022-10-14T17:06:50;4.78;;;3.22;;
55224;SDS011;41091;49.400;8.684;2022-10-14T17:09:16;4.65;;;2.40;;
55224;SDS011;41091;49.400;8.684;2022-10-14T17:11:42;3.15;;;2.83;;
55224;SDS011;41091;49.400;8.684;2022-10-14T17:14:10;9.10;;;3.95;;
55224;SDS011;41091;49.400;8.684;2022-10-14T17:16:38;4.57;;;4.10;;
55224;SDS011;41091;49.400;8.684;2022-10-14T17:19:04;5.50;;;3.85;;
55224;SDS011;41091;49.400;8.684;2022-10-14T17:21:29;3.50;;;3.20;;
55224;SDS011;41091;49.400;8.684;2022-10-14T17:23:57;4.65;;;3.15;;
55224;SDS011;41091;49.400;8.684;2022-10-14T17:26:26;8.88;;;3.20;;
55224;SDS011;41091;49.400;8.684;2022-10-14T17:28:54;3.10;;;2.90;;
55224;SDS011;41091;49.400;8.684;2022-10-14T17:31:19;2.78;;;2.58;;